AKDT,Max TemperatureF,Mean TemperatureF,Min TemperatureF,Max Dew PointF,MeanDew PointF,Min DewpointF,Max Humidity, Mean Humidity, Min Humidity, Max Sea Level PressureIn, Mean Sea Level PressureIn, Min Sea Level PressureIn, Max VisibilityMiles, Mean VisibilityMiles, Min VisibilityMiles, Max Wind SpeedMPH, Mean Wind SpeedMPH, Max Gust SpeedMPH,PrecipitationIn, CloudCover, Events, WindDirDegrees
2012-9-1,59,51,43,48,41,37,0,0,0,29.70,29.65,29.62,10,10,10,16,6,20,T,5,Rain,304
2012-9-2,55,50,44,52,48,41,0,0,0,29.70,29.61,29.47,10,9,4,20,5,25,0.04,8,Rain,132
2012-9-3,61,55,49,52,43,38,0,0,0,29.89,29.63,29.49,10,10,10,17,10,23,0.00,5,,205
2012-9-4,53,47,41,52,46,38,0,0,0,29.92,29.75,29.59,10,8,2,23,9,33,0.14,7,Rain,144
2012-9-5,59,56,52,45,44,41,0,0,0,30.04,29.77,29.63,10,10,7,22,11,29,0.01,6,Rain,217
2012-9-6,59,50,41,42,39,35,0,0,0,30.22,30.16,30.06,10,10,10,16,6,21,T,5,,290
2012-9-7,54,45,35,43,40,34,0,0,0,30.13,29.98,29.82,10,10,10,13,5,16,0.01,6,Rain,244
2012-9-8,53,49,45,44,40,36,0,0,0,29.82,29.78,29.74,10,9,3,25,12,38,0.06,6,Rain,303
2012-9-9,60,51,41,36,34,31,0,0,0,29.88,29.83,29.80,10,10,10,28,14,38,0.00,0,,279
2012-9-10,52,43,34,45,39,32,0,0,0,29.89,29.85,29.80,10,10,9,10,4,10,0.05,6,Rain,296
2012-9-11,51,48,45,52,47,44,0,0,0,29.81,29.66,29.53,10,6,1,15,3,17,0.28,8,Rain,78
2012-9-12,53,50,46,48,44,41,0,0,0,29.81,29.65,29.53,10,10,8,29,7,38,0.02,8,Rain,271
2012-9-13,56,48,40,47,44,39,0,0,0,29.86,29.84,29.81,10,10,10,9,5,10,0.00,5,,271
2012-9-14,58,51,44,49,45,40,0,0,0,29.84,29.77,29.72,10,10,10,16,5,21,0.02,7,Rain,171
2012-9-15,55,53,50,52,49,46,0,0,0,29.76,29.60,29.33,10,8,3,29,13,36,0.78,8,Rain,143
2012-9-16,55,49,42,52,44,38,0,0,0,29.73,29.43,29.34,10,10,6,30,12,41,0.01,7,Rain,177
2012-9-17,54,48,41,48,41,36,0,0,0,29.94,29.86,29.74,10,9,5,23,9,31,0.61,6,Rain,172
2012-9-18,56,53,50,50,49,47,0,0,0,29.71,29.65,29.57,10,9,6,26,12,36,0.34,8,Rain,142
2012-9-19,60,55,50,53,51,48,0,0,0,29.64,29.46,29.33,10,8,3,31,13,43,1.13,8,Rain,137
2012-9-20,54,52,49,52,49,47,0,0,0,29.66,29.61,29.58,10,7,0,14,5,17,0.21,8,Fog-Rain,83
2012-9-21,52,47,42,52,48,42,0,0,0,29.73,29.55,29.31,10,5,0,29,10,39,1.12,7,Fog-Rain,63
2012-9-22,54,51,48,51,50,48,0,0,0,29.30,29.21,29.14,10,4,1,18,10,23,0.86,8,Rain,74
2012-9-23,57,52,47,50,45,37,0,0,0,29.84,29.44,29.19,10,9,3,21,8,26,0.10,7,Rain,316
2012-9-24,49,47,44,48,42,37,0,0,0,29.88,29.78,29.50,10,8,2,31,13,45,0.53,8,Rain,93
2012-9-25,50,48,46,50,47,40,0,0,0,29.48,29.23,29.00,10,6,2,23,11,26,0.91,8,Rain,99
2012-9-26,49,47,45,47,44,40,0,0,0,29.21,28.88,28.41,10,7,3,45,27,58,1.22,8,Rain,72
2012-9-27,55,50,45,47,42,38,0,0,0,29.12,28.77,28.45,10,8,4,28,14,40,0.54,7,Rain,310
2012-9-28,46,38,30,39,32,24,0,0,0,29.56,29.35,29.13,10,10,5,17,8,23,0.11,7,Rain,295
2012-9-29,44,36,27,36,31,25,0,0,0,29.82,29.65,29.57,10,9,3,28,7,35,0.21,5,Rain-Snow-Thunderstorm,256
2012-9-30,47,39,31,34,33,28,0,0,0,30.15,30.01,29.84,10,10,10,18,7,25,T,3,Rain-Snow,300